Time;durP1;ratioP1;P1;durP2;ratioP2;P2;SDS_P1;SDS_P2;PMS_P1;PMS_P2;Temp;Humidity;BMP_temperature;BMP_pressure;BME280_temperature;BME280_humidity;BME280_pressure;Samples;Min_cycle;Max_cycle;Signal;HPM_P1;HPM_P2
2023/11/02 00:02:04;;;;;;;2.25;0.80;;;8.90;1.00;;;;;;5026426;28;20395;-87
2023/11/02 00:04:29;;;;;;;1.20;0.60;;;9.80;1.00;;;;;;5023757;28;20424;-87
2023/11/02 00:06:57;;;;;;;1.85;0.60;;;9.80;1.00;;;;;;5028141;28;20389;-87
2023/11/02 00:09:39;;;;;;;1.90;0.80;;;9.60;1.00;;;;;;5013142;28;20438;-87
2023/11/02 00:12:07;;;;;;;1.80;0.60;;;9.60;1.00;;;;;;5024868;28;20387;-87
2023/11/02 00:14:47;;;;;;;1.40;0.80;;;9.90;1.00;;;;;;5014897;28;20416;-87
2023/11/02 00:17:38;;;;;;;0.93;0.60;;;8.70;1.00;;;;;;5015017;28;20773;-85
2023/11/02 00:20:07;;;;;;;1.23;0.88;;;9.80;1.00;;;;;;5155454;22;20464;-84
2023/11/02 00:22:38;;;;;;;1.58;0.70;;;9.90;1.00;;;;;;5057403;28;20715;-82
2023/11/02 00:25:05;;;;;;;0.82;0.63;;;9.00;1.00;;;;;;5071101;28;20409;-85
2023/11/02 00:27:34;;;;;;;1.60;0.68;;;9.70;1.00;;;;;;5068756;28;20416;-85
2023/11/02 00:30:00;;;;;;;1.10;0.60;;;9.70;1.00;;;;;;5072174;28;20767;-86
2023/11/02 00:32:25;;;;;;;1.10;0.80;;;9.60;1.00;;;;;;5091884;28;20399;-83
2023/11/02 00:34:52;;;;;;;2.17;0.70;;;9.40;1.00;;;;;;5081696;28;20403;-83
2023/11/02 00:37:17;;;;;;;1.25;0.65;;;9.70;1.00;;;;;;5081410;28;20399;-84
2023/11/02 00:39:43;;;;;;;1.60;0.50;;;9.70;1.00;;;;;;5080287;28;20388;-84
2023/11/02 00:42:08;;;;;;;1.15;0.60;;;9.50;1.00;;;;;;5076949;28;20379;-85
2023/11/02 00:44:34;;;;;;;0.70;0.50;;;9.60;1.00;;;;;;5066869;28;20440;-85
2023/11/02 00:47:00;;;;;;;1.20;0.50;;;9.60;1.00;;;;;;5059589;28;20393;-85
2023/11/02 00:49:35;;;;;;;1.80;0.80;;;9.50;1.00;;;;;;5064732;28;20438;-84
2023/11/02 00:52:04;;;;;;;2.60;0.80;;;9.60;1.00;;;;;;5079032;28;20383;-84
2023/11/02 00:54:38;;;;;;;2.17;0.70;;;9.80;1.00;;;;;;5079146;28;20882;-85
2023/11/02 00:57:04;;;;;;;2.70;0.60;;;9.70;1.00;;;;;;5078462;28;20390;-85
2023/11/02 00:59:32;;;;;;;0.90;0.60;;;9.70;1.00;;;;;;5080913;28;20408;-85
2023/11/02 01:01:58;;;;;;;1.63;0.73;;;9.60;1.00;;;;;;5091379;28;20372;-83
2023/11/02 01:04:54;;;;;;;2.20;0.60;;;9.40;1.00;;;;;;5093116;28;20431;-84
2023/11/02 01:07:20;;;;;;;1.60;0.60;;;9.90;1.00;;;;;;5069909;28;20409;-83
2023/11/02 01:09:51;;;;;;;1.60;0.60;;;9.90;1.00;;;;;;5069694;28;20388;-83
2023/11/02 01:12:37;;;;;;;1.08;0.50;;;10.10;1.00;;;;;;5067197;28;20393;-84
2023/11/02 01:15:11;;;;;;;2.35;0.80;;;9.90;1.00;;;;;;5065090;28;20404;-86
2023/11/02 01:17:39;;;;;;;1.40;0.50;;;10.30;1.00;;;;;;5060734;28;20396;-85
2023/11/02 01:20:14;;;;;;;0.90;0.60;;;10.20;1.00;;;;;;5059162;28;20489;-85
2023/11/02 01:23:01;;;;;;;1.80;0.40;;;10.30;1.00;;;;;;5060119;28;20745;-84
2023/11/02 01:25:28;;;;;;;1.90;0.50;;;10.40;1.00;;;;;;5080697;28;20400;-85
2023/11/02 01:27:59;;;;;;;0.80;0.40;;;10.50;1.00;;;;;;5078304;28;20392;-85
2023/11/02 01:30:24;;;;;;;1.50;0.60;;;10.50;1.00;;;;;;5078529;28;20451;-84
2023/11/02 01:32:50;;;;;;;1.13;0.60;;;10.50;1.00;;;;;;5079928;28;20411;-86
2023/11/02 01:35:41;;;;;;;0.80;0.50;;;10.50;1.00;;;;;;5080044;28;20388;-84
2023/11/02 01:38:07;;;;;;;1.38;0.60;;;10.00;1.00;;;;;;5077412;28;20400;-85
2023/11/02 01:40:56;;;;;;;1.50;0.50;;;9.50;1.00;;;;;;5077497;28;20392;-85
2023/11/02 01:44:19;;;;;;;1.00;0.53;;;10.40;1.00;;;;;;5084815;28;20380;-84
2023/11/02 01:47:10;;;;;;;0.83;0.50;;;10.60;1.00;;;;;;5075640;28;20391;-85
2023/11/02 01:49:35;;;;;;;0.90;0.50;;;10.60;1.00;;;;;;5081531;28;20390;-83
2023/11/02 01:52:18;;;;;;;1.60;0.50;;;10.70;1.00;;;;;;5081215;28;20454;-84
2023/11/02 01:54:53;;;;;;;0.82;0.38;;;10.90;1.00;;;;;;5087978;28;20431;-84
2023/11/02 01:57:44;;;;;;;0.60;0.40;;;11.10;1.00;;;;;;5078136;28;20392;-85
2023/11/02 02:00:15;;;;;;;1.30;0.50;;;11.00;1.00;;;;;;5078123;28;20412;-84
2023/11/02 02:03:28;;;;;;;0.50;0.40;;;11.10;1.00;;;;;;5078417;28;20388;-85
2023/11/02 02:06:15;;;;;;;1.50;0.40;;;11.20;1.00;;;;;;5079592;28;20756;-84
2023/11/02 02:08:58;;;;;;;1.10;0.60;;;11.40;1.00;;;;;;5078911;28;20510;-85
2023/11/02 02:11:50;;;;;;;1.40;0.50;;;11.40;1.00;;;;;;5078365;28;20410;-85
2023/11/02 02:14:33;;;;;;;7.53;0.60;;;11.50;1.00;;;;;;5077693;28;20392;-83
2023/11/02 02:17:11;;;;;;;1.08;0.50;;;11.60;1.00;;;;;;5077511;28;20375;-83
2023/11/02 02:19:59;;;;;;;0.77;0.40;;;11.00;1.00;;;;;;5074997;28;20496;-83
2023/11/02 02:22:32;;;;;;;0.60;0.40;;;12.90;1.00;;;;;;5075946;28;20391;-83
2023/11/02 02:25:24;;;;;;;0.60;0.40;;;15.10;1.00;;;;;;5072933;28;20429;-84
2023/11/02 02:27:58;;;;;;;1.00;0.40;;;13.70;1.00;;;;;;5066224;28;20412;-84
2023/11/02 02:30:36;;;;;;;0.60;0.32;;;13.80;1.00;;;;;;5072897;28;20393;-85
2023/11/02 02:33:40;;;;;;;0.70;0.50;;;13.40;1.00;;;;;;5076575;28;20375;-85
2023/11/02 02:36:21;;;;;;;1.50;0.40;;;13.20;1.00;;;;;;5035664;28;20389;-85
2023/11/02 02:38:52;;;;;;;0.70;0.40;;;13.30;1.00;;;;;;5051351;28;20404;-83
2023/11/02 02:41:21;;;;;;;1.20;0.90;;;13.10;1.00;;;;;;5062316;28;20454;-83
2023/11/02 02:43:52;;;;;;;1.60;0.50;;;13.50;1.00;;;;;;5064396;28;20917;-85
2023/11/02 02:46:20;;;;;;;0.57;0.47;;;13.60;1.00;;;;;;5051895;28;20454;-85
2023/11/02 02:48:47;;;;;;;1.30;0.50;;;13.30;1.00;;;;;;5051196;28;20394;-85
2023/11/02 02:51:15;;;;;;;1.10;0.52;;;13.00;1.00;;;;;;5055350;28;20457;-85
2023/11/02 02:53:42;;;;;;;0.70;0.40;;;13.10;1.00;;;;;;5059264;28;20393;-85
2023/11/02 02:56:12;;;;;;;1.33;0.40;;;12.90;1.00;;;;;;5059247;28;20393;-84
2023/11/02 02:59:04;;;;;;;0.70;0.30;;;13.30;1.00;;;;;;5060394;28;21036;-84
2023/11/02 03:01:36;;;;;;;0.85;0.40;;;12.90;1.00;;;;;;5056756;28;20386;-83
2023/11/02 03:04:04;;;;;;;0.80;0.50;;;12.50;1.00;;;;;;5071654;28;20409;-82
2023/11/02 03:06:31;;;;;;;1.70;0.60;;;12.50;1.00;;;;;;5064799;28;20468;-85
2023/11/02 03:08:59;;;;;;;0.90;0.50;;;12.90;1.00;;;;;;5058615;28;20413;-85
2023/11/02 03:11:27;;;;;;;1.30;0.50;;;12.00;1.00;;;;;;5058495;28;20397;-85
2023/11/02 03:13:55;;;;;;;0.63;0.50;;;11.90;1.00;;;;;;5058741;28;20381;-84
2023/11/02 03:16:23;;;;;;;1.30;0.70;;;11.70;1.00;;;;;;5063581;28;20390;-85
2023/11/02 03:18:49;;;;;;;1.52;0.70;;;11.60;1.00;;;;;;5075854;28;20809;-84
2023/11/02 03:21:14;;;;;;;0.80;0.65;;;11.60;1.00;;;;;;5074646;28;20384;-84
2023/11/02 03:23:55;;;;;;;0.70;0.55;;;11.10;1.00;;;;;;5078071;28;20399;-84
2023/11/02 03:26:35;;;;;;;1.30;0.40;;;11.40;1.00;;;;;;5079483;28;20449;-85
2023/11/02 03:29:26;;;;;;;0.73;0.50;;;11.30;1.00;;;;;;5079458;28;20859;-84
2023/11/02 03:32:00;;;;;;;0.68;0.50;;;11.40;1.00;;;;;;5080855;28;20368;-85
2023/11/02 03:34:36;;;;;;;0.50;0.40;;;11.60;1.00;;;;;;5084584;28;20380;-85
2023/11/02 03:37:14;;;;;;;0.60;0.40;;;11.60;1.00;;;;;;5080066;28;20384;-85
2023/11/02 03:40:16;;;;;;;0.50;0.30;;;11.70;1.00;;;;;;5062277;28;20761;-85
2023/11/02 03:43:00;;;;;;;0.60;0.45;;;11.80;1.00;;;;;;5062102;28;20373;-84
2023/11/02 03:46:03;;;;;;;0.70;0.50;;;11.80;1.00;;;;;;5079216;28;20399;-84
2023/11/02 03:48:42;;;;;;;0.70;0.40;;;11.90;1.00;;;;;;5092887;28;20838;-83
2023/11/02 03:51:32;;;;;;;0.80;0.60;;;12.00;1.00;;;;;;5094660;28;20424;-82
2023/11/02 03:54:16;;;;;;;2.00;0.45;;;11.50;1.00;;;;;;5073019;28;20457;-85
2023/11/02 03:57:18;;;;;;;0.57;0.40;;;12.20;1.00;;;;;;5064311;28;20394;-85
2023/11/02 04:00:04;;;;;;;0.90;0.50;;;12.30;1.00;;;;;;5058624;28;20761;-84
2023/11/02 04:02:36;;;;;;;0.80;0.45;;;12.30;1.00;;;;;;5058065;28;20389;-85
2023/11/02 04:05:20;;;;;;;1.10;0.40;;;12.30;1.00;;;;;;5058716;28;20417;-85
2023/11/02 04:08:09;;;;;;;0.77;0.50;;;12.30;1.00;;;;;;5061061;28;20448;-85
2023/11/02 04:10:35;;;;;;;1.40;0.40;;;12.20;1.00;;;;;;5075093;28;20399;-84
2023/11/02 04:13:17;;;;;;;0.70;0.40;;;12.20;1.00;;;;;;5079005;28;20871;-83
2023/11/02 04:15:42;;;;;;;1.35;0.50;;;12.10;1.00;;;;;;5077921;28;20427;-83
2023/11/02 04:18:09;;;;;;;0.70;0.60;;;11.90;1.00;;;;;;5081459;28;20384;-84
2023/11/02 04:20:36;;;;;;;1.55;0.77;;;12.00;1.00;;;;;;5078990;28;20383;-84
2023/11/02 04:23:02;;;;;;;0.57;0.50;;;11.90;1.00;;;;;;5076663;28;20379;-85
2023/11/02 04:25:28;;;;;;;1.60;0.50;;;11.80;1.00;;;;;;5072696;28;20417;-85
2023/11/02 04:27:54;;;;;;;1.10;0.50;;;11.70;1.00;;;;;;5058985;28;20396;-85
2023/11/02 04:30:20;;;;;;;0.80;0.50;;;11.70;1.00;;;;;;5059553;28;20465;-84
2023/11/02 04:32:45;;;;;;;1.10;0.50;;;11.90;1.00;;;;;;5076832;28;20372;-83
2023/11/02 04:35:11;;;;;;;0.67;0.47;;;12.00;1.00;;;;;;5076638;28;20406;-84
2023/11/02 04:37:37;;;;;;;0.73;0.40;;;12.30;1.00;;;;;;5078248;28;20383;-83
2023/11/02 04:40:03;;;;;;;0.67;0.50;;;12.40;1.00;;;;;;5078139;28;20390;-83
2023/11/02 04:42:29;;;;;;;0.60;0.40;;;12.70;1.00;;;;;;5080589;28;20393;-82
2023/11/02 04:44:55;;;;;;;0.87;0.50;;;12.70;1.00;;;;;;5077968;28;20450;-82
2023/11/02 04:47:20;;;;;;;0.70;0.50;;;12.50;1.00;;;;;;5077949;28;20415;-81
2023/11/02 04:49:46;;;;;;;0.90;0.60;;;12.50;1.00;;;;;;5077997;28;20378;-81
2023/11/02 04:52:11;;;;;;;0.60;0.40;;;12.60;1.00;;;;;;5076707;28;20388;-82
2023/11/02 04:54:37;;;;;;;0.50;0.40;;;12.50;1.00;;;;;;5072540;28;20381;-83
2023/11/02 04:57:03;;;;;;;1.13;0.40;;;12.60;1.00;;;;;;5071572;28;20393;-83
2023/11/02 04:59:35;;;;;;;0.90;0.40;;;12.60;1.00;;;;;;5083333;28;20447;-82
2023/11/02 05:02:02;;;;;;;0.70;0.40;;;12.50;1.00;;;;;;5089080;28;20379;-83
2023/11/02 05:04:28;;;;;;;0.70;0.43;;;12.50;1.00;;;;;;5077653;28;20431;-83
2023/11/02 05:06:54;;;;;;;0.63;0.52;;;12.40;1.00;;;;;;5078564;28;20451;-85
2023/11/02 05:09:20;;;;;;;0.98;0.70;;;12.30;1.00;;;;;;5090651;28;20375;-83
2023/11/02 05:11:46;;;;;;;1.10;0.60;;;11.50;1.00;;;;;;5091800;28;20392;-83
2023/11/02 05:14:13;;;;;;;0.90;0.50;;;12.30;1.00;;;;;;5091735;28;20844;-82
2023/11/02 05:16:38;;;;;;;1.00;0.50;;;11.70;1.00;;;;;;5079515;28;20395;-85
2023/11/02 05:19:04;;;;;;;1.65;0.77;;;11.40;1.00;;;;;;5077593;28;20391;-83
2023/11/02 05:21:31;;;;;;;1.13;0.60;;;10.30;1.00;;;;;;5076335;28;20417;-83
2023/11/02 05:23:56;;;;;;;1.80;0.80;;;11.00;1.00;;;;;;5078385;28;20395;-84
2023/11/02 05:26:22;;;;;;;1.50;0.70;;;10.90;1.00;;;;;;5077122;28;20394;-84
2023/11/02 05:28:47;;;;;;;1.90;0.60;;;10.90;1.00;;;;;;5076169;28;20952;-84
2023/11/02 05:31:13;;;;;;;0.82;0.55;;;11.00;1.00;;;;;;5078527;28;20752;-83
2023/11/02 05:33:38;;;;;;;1.25;0.80;;;10.70;1.00;;;;;;5079597;28;20431;-85
2023/11/02 05:36:04;;;;;;;0.80;0.60;;;10.20;1.00;;;;;;5081235;28;20399;-83
2023/11/02 05:38:30;;;;;;;1.50;0.70;;;11.00;1.00;;;;;;5080389;28;20384;-84
2023/11/02 05:40:55;;;;;;;0.73;0.63;;;10.90;1.00;;;;;;5080564;28;20473;-84
2023/11/02 05:43:21;;;;;;;1.43;0.83;;;10.50;1.00;;;;;;5078278;28;20418;-83
2023/11/02 05:45:46;;;;;;;2.20;0.63;;;10.90;1.00;;;;;;5059159;28;20431;-83
2023/11/02 05:48:12;;;;;;;1.58;0.80;;;10.60;1.00;;;;;;5057861;28;20402;-83
2023/11/02 05:50:37;;;;;;;1.70;0.80;;;10.80;1.00;;;;;;5065663;28;20398;-83
2023/11/02 05:53:03;;;;;;;1.50;0.80;;;10.40;1.00;;;;;;5056620;28;20393;-84
2023/11/02 05:55:29;;;;;;;2.67;1.00;;;10.30;1.00;;;;;;5054133;28;20417;-83
2023/11/02 05:57:54;;;;;;;2.30;0.70;;;10.50;1.00;;;;;;5054456;28;20435;-83
2023/11/02 06:00:20;;;;;;;1.60;0.90;;;10.60;1.00;;;;;;5054217;28;20389;-84
2023/11/02 06:02:45;;;;;;;1.60;1.40;;;11.00;1.00;;;;;;5052870;28;20386;-83
2023/11/02 06:05:11;;;;;;;2.30;1.40;;;10.60;1.00;;;;;;5060378;28;20408;-83
2023/11/02 06:07:36;;;;;;;2.37;1.30;;;10.40;1.00;;;;;;5062336;28;20402;-84
2023/11/02 06:10:03;;;;;;;2.60;1.60;;;10.70;1.00;;;;;;5059898;28;20381;-84
2023/11/02 06:12:29;;;;;;;1.35;1.25;;;10.70;1.00;;;;;;5058580;28;20381;-83
2023/11/02 06:14:55;;;;;;;1.97;1.20;;;10.70;1.00;;;;;;5055825;28;20397;-83
2023/11/02 06:17:21;;;;;;;3.17;1.00;;;10.50;1.00;;;;;;5070924;28;20771;-83
2023/11/02 06:19:47;;;;;;;1.75;0.85;;;10.60;1.00;;;;;;5067887;22;20437;-89
2023/11/02 06:22:13;;;;;;;1.55;0.63;;;10.70;1.00;;;;;;5050477;28;20385;-86
2023/11/02 06:24:40;;;;;;;1.25;0.70;;;10.40;1.00;;;;;;5051457;28;20401;-89
2023/11/02 06:27:06;;;;;;;2.08;0.80;;;10.60;1.00;;;;;;5052176;28;20389;-86
2023/11/02 06:29:31;;;;;;;1.40;1.10;;;9.50;1.00;;;;;;5063393;28;20458;-87
2023/11/02 06:31:57;;;;;;;1.63;1.10;;;10.30;1.00;;;;;;5067369;28;20976;-87
2023/11/02 06:34:22;;;;;;;2.03;0.80;;;10.50;1.00;;;;;;5050283;28;20389;-87
2023/11/02 06:36:48;;;;;;;1.90;0.70;;;10.50;1.00;;;;;;5050130;28;20916;-87
2023/11/02 06:39:20;;;;;;;1.43;0.73;;;10.60;1.00;;;;;;5049985;28;20424;-86
2023/11/02 06:41:48;;;;;;;1.10;0.60;;;10.50;1.00;;;;;;5051181;28;20385;-86
2023/11/02 06:44:14;;;;;;;0.97;0.70;;;10.70;1.00;;;;;;5064541;28;20395;-87
2023/11/02 06:46:40;;;;;;;0.60;0.60;;;11.50;8.30;;;;;;5075784;28;20452;-85
2023/11/02 06:49:05;;;;;;;1.87;0.70;;;9.60;1.00;;;;;;5067096;28;20397;-89
2023/11/02 06:51:35;;;;;;;1.20;0.70;;;10.50;8.30;;;;;;5053713;28;20768;-90
2023/11/02 06:54:01;;;;;;;2.60;0.80;;;9.90;8.60;;;;;;5054834;28;20432;-86
2023/11/02 06:56:27;;;;;;;2.23;0.90;;;12.20;28.80;;;;;;5055310;28;20463;-87
2023/11/02 06:58:52;;;;;;;1.07;0.70;;;10.50;31.70;;;;;;5055341;28;20869;-87
2023/11/02 07:01:19;;;;;;;2.20;0.80;;;9.90;38.80;;;;;;5053932;28;20384;-88
2023/11/02 07:03:50;;;;;;;0.80;0.60;;;14.30;16.60;;;;;;5054921;28;20401;-88
2023/11/02 07:06:15;;;;;;;1.10;0.80;;;10.60;41.10;;;;;;5066701;28;20461;-88
2023/11/02 07:08:41;;;;;;;2.15;0.88;;;13.40;28.10;;;;;;5066504;28;20394;-89
2023/11/02 07:11:07;;;;;;;1.00;0.80;;;12.00;52.80;;;;;;5054036;28;20942;-89
2023/11/02 07:13:32;;;;;;;0.90;0.50;;;10.60;33.20;;;;;;5054726;28;20377;-88
2023/11/02 07:15:58;;;;;;;0.93;0.70;;;10.60;21.70;;;;;;5053349;28;20419;-89
2023/11/02 07:18:24;;;;;;;1.10;0.67;;;12.90;28.60;;;;;;5052836;28;20835;-88
2023/11/02 07:20:50;;;;;;;1.10;0.70;;;9.70;29.00;;;;;;5053666;28;20753;-87
2023/11/02 07:23:15;;;;;;;0.98;0.60;;;10.80;64.10;;;;;;5054368;28;20404;-88
2023/11/02 07:25:41;;;;;;;1.40;0.60;;;9.70;58.20;;;;;;5053284;28;20496;-88
2023/11/02 07:28:07;;;;;;;0.93;0.60;;;11.70;30.30;;;;;;5053624;28;20400;-89
2023/11/02 07:30:33;;;;;;;0.98;0.65;;;11.10;34.60;;;;;;5053418;28;20908;-88
2023/11/02 07:33:03;;;;;;;1.80;0.70;;;13.90;58.60;;;;;;5053410;28;20424;-88
2023/11/02 07:35:29;;;;;;;0.60;0.47;;;14.40;65.30;;;;;;5054981;28;20385;-88
2023/11/02 07:37:54;;;;;;;0.60;0.60;;;11.50;57.10;;;;;;5068253;28;20383;-88
2023/11/02 07:40:23;;;;;;;0.90;0.60;;;11.10;53.80;;;;;;5066325;28;20471;-91
2023/11/02 07:43:20;;;;;;;0.90;0.40;;;11.90;19.00;;;;;;5054068;28;20881;-89
2023/11/02 07:45:56;;;;;;;0.40;0.30;;;15.60;49.60;;;;;;5053559;28;20408;-89
2023/11/02 07:48:42;;;;;;;0.80;0.50;;;11.90;1.00;;;;;;5052982;28;20390;-91
2023/11/02 07:51:08;;;;;;;0.50;0.30;;;13.70;1.00;;;;;;5051417;28;20481;-86
2023/11/02 07:53:33;;;;;;;0.63;0.30;;;15.60;1.00;;;;;;5052188;28;20448;-86
2023/11/02 07:55:59;;;;;;;0.93;0.30;;;13.40;1.00;;;;;;5056310;28;20472;-86
2023/11/02 07:58:25;;;;;;;0.60;0.40;;;13.00;1.00;;;;;;5053513;28;20504;-87
2023/11/02 08:00:53;;;;;;;0.57;0.50;;;13.30;1.00;;;;;;5052774;28;20480;-86
2023/11/02 08:03:20;;;;;;;1.10;0.45;;;12.90;1.00;;;;;;5052308;28;20750;-88
2023/11/02 08:05:48;;;;;;;0.60;0.50;;;13.00;1.00;;;;;;5057475;28;20387;-91
2023/11/02 08:08:14;;;;;;;0.50;0.38;;;11.90;1.00;;;;;;5074549;28;20391;-89
2023/11/02 08:10:40;;;;;;;0.70;0.40;;;12.20;1.00;;;;;;5094819;28;20407;-87
2023/11/02 08:13:05;;;;;;;0.40;0.40;;;14.90;1.00;;;;;;5097351;28;20528;-87
2023/11/02 08:15:31;;;;;;;1.98;0.60;;;12.50;1.00;;;;;;5098025;28;20384;-88
2023/11/02 08:18:08;;;;;;;0.93;0.60;;;11.20;1.00;;;;;;5098052;28;20390;-88
2023/11/02 08:20:39;;;;;;;1.02;0.70;;;12.40;1.00;;;;;;5097683;28;20413;-89
2023/11/02 08:23:18;;;;;;;2.30;0.70;;;11.40;1.00;;;;;;5097660;28;20419;-89
2023/11/02 08:25:47;;;;;;;0.60;0.40;;;13.10;1.00;;;;;;5082332;28;20415;-88
2023/11/02 08:28:15;;;;;;;3.10;0.57;;;13.10;1.00;;;;;;5072531;28;20435;-89
2023/11/02 08:30:41;;;;;;;1.73;0.63;;;12.20;1.00;;;;;;5074318;28;20392;-88
2023/11/02 08:33:08;;;;;;;0.77;0.60;;;11.40;1.00;;;;;;5073207;28;20398;-89
2023/11/02 08:35:34;;;;;;;1.25;0.90;;;14.40;1.00;;;;;;5072916;28;20819;-89
2023/11/02 08:38:14;;;;;;;2.10;0.90;;;13.20;1.00;;;;;;5075648;28;20380;-91
2023/11/02 08:40:57;;;;;;;1.30;0.60;;;12.10;1.00;;;;;;5076532;28;20447;-86
2023/11/02 08:43:46;;;;;;;0.90;0.40;;;11.50;1.00;;;;;;5073147;28;20488;-90
2023/11/02 08:46:19;;;;;;;1.40;0.40;;;12.00;1.00;;;;;;5072232;28;20406;-89
2023/11/02 08:48:50;;;;;;;1.00;0.50;;;11.80;1.00;;;;;;5073760;28;20433;-90
2023/11/02 08:51:18;;;;;;;0.80;0.40;;;11.70;1.00;;;;;;5074106;28;20383;-90
2023/11/02 08:53:45;;;;;;;2.47;0.70;;;11.50;1.00;;;;;;5058139;28;20439;-88
2023/11/02 08:56:17;;;;;;;1.38;0.50;;;14.30;1.00;;;;;;5062004;28;20403;-90
2023/11/02 08:58:46;;;;;;;2.10;0.40;;;10.80;1.00;;;;;;5053943;28;20491;-88
2023/11/02 09:01:17;;;;;;;0.80;0.40;;;11.80;1.00;;;;;;5053341;28;20396;-89
2023/11/02 09:03:42;;;;;;;1.80;0.60;;;11.70;1.00;;;;;;5052323;28;20420;-88
2023/11/02 09:06:08;;;;;;;2.28;0.60;;;16.30;1.00;;;;;;5052514;28;20377;-89
2023/11/02 09:08:40;;;;;;;1.10;0.47;;;11.70;1.00;;;;;;5051489;28;20389;-90
2023/11/02 09:11:06;;;;;;;1.60;0.60;;;11.20;1.00;;;;;;5052014;28;20385;-88
2023/11/02 09:13:32;;;;;;;1.30;0.50;;;13.80;1.00;;;;;;5052774;28;20382;-86
2023/11/02 09:16:00;;;;;;;1.10;0.30;;;14.00;1.00;;;;;;5052995;28;20395;-88
2023/11/02 09:18:26;;;;;;;0.80;0.50;;;11.40;1.00;;;;;;5050996;28;20434;-85
2023/11/02 09:20:52;;;;;;;1.20;0.40;;;11.30;1.00;;;;;;5053383;28;20737;-85
2023/11/02 09:23:18;;;;;;;1.40;0.55;;;11.40;1.00;;;;;;5059143;28;20432;-85
2023/11/02 09:25:46;;;;;;;0.90;0.40;;;11.50;1.00;;;;;;5059240;28;20933;-85
2023/11/02 09:28:13;;;;;;;1.00;0.70;;;11.70;1.00;;;;;;5059302;28;20419;-86
2023/11/02 09:30:41;;;;;;;1.00;0.50;;;11.70;1.00;;;;;;5062850;28;20398;-88
2023/11/02 09:33:07;;;;;;;1.20;0.47;;;11.70;1.00;;;;;;5070515;28;20379;-88
2023/11/02 09:35:33;;;;;;;1.92;0.65;;;11.70;1.00;;;;;;5071624;28;21413;-85
2023/11/02 09:41:54;;;;;;;;;;;;;;;;;;;;;
2023/11/02 09:44:23;;;;;;;1.50;0.30;;;11.70;1.00;;;;;;5046109;28;20826;-89
2023/11/02 09:47:13;;;;;;;0.85;0.40;;;13.90;1.00;;;;;;5057045;28;20386;-87
2023/11/02 09:49:42;;;;;;;1.70;0.60;;;12.40;1.00;;;;;;5051820;28;20404;-92
2023/11/02 09:52:17;;;;;;;1.00;0.40;;;11.90;1.00;;;;;;5054503;28;20396;-92
2023/11/02 09:58:10;;;;;;;1.50;0.40;;;12.20;1.00;;;;;;5072857;28;20384;-88
2023/11/02 10:00:51;;;;;;;1.05;0.65;;;12.70;1.00;;;;;;5060042;28;20393;-93
2023/11/02 10:09:23;;;;;;;1.20;0.30;;;12.90;1.00;;;;;;5046354;28;20401;-87
2023/11/02 10:12:00;;;;;;;4.22;0.68;;;11.90;1.00;;;;;;5061208;28;20443;-91
2023/11/02 10:14:28;;;;;;;1.10;0.40;;;10.10;1.00;;;;;;5078906;28;20561;-89
2023/11/02 10:17:06;;;;;;;0.90;0.50;;;13.00;1.00;;;;;;5087179;28;20440;-88
2023/11/02 10:19:34;;;;;;;0.90;0.40;;;15.70;1.00;;;;;;5083996;28;20432;-86
2023/11/02 10:22:02;;;;;;;0.50;0.30;;;13.60;1.00;;;;;;5094996;28;20419;-87
2023/11/02 10:32:40;;;;;;;0.75;0.50;;;12.60;1.00;;;;;;5100433;28;20402;-90
2023/11/02 10:34:59;;;;;;;1.23;0.50;;;12.10;1.00;;;;;;5076955;28;20384;-91
2023/11/02 10:37:32;;;;;;;0.70;0.40;;;15.50;1.00;;;;;;5080578;28;20415;-87
2023/11/02 10:39:59;;;;;;;0.68;0.40;;;13.10;1.00;;;;;;5082622;28;20409;-88
2023/11/02 10:42:28;;;;;;;0.90;0.50;;;15.90;1.00;;;;;;5083802;28;20404;-89
2023/11/02 10:44:55;;;;;;;1.43;0.43;;;11.50;1.00;;;;;;5078633;28;20453;-88
2023/11/02 10:47:34;;;;;;;2.00;0.40;;;12.60;1.00;;;;;;5071580;28;20926;-87
2023/11/02 10:50:01;;;;;;;0.80;0.40;;;12.80;1.00;;;;;;5070934;28;20424;-88
2023/11/02 10:52:46;;;;;;;1.00;0.60;;;12.80;1.00;;;;;;5066511;28;20433;-86
2023/11/02 10:55:31;;;;;;;1.30;0.40;;;14.20;1.00;;;;;;5096709;28;20399;-87
2023/11/02 10:58:24;;;;;;;0.80;0.40;;;12.90;1.00;;;;;;5074189;28;20405;-88
2023/11/02 11:00:58;;;;;;;1.60;0.40;;;12.90;1.00;;;;;;5074494;28;20391;-87
2023/11/02 11:03:24;;;;;;;1.60;0.50;;;13.00;1.00;;;;;;5059535;28;20394;-87
2023/11/02 11:05:57;;;;;;;2.10;0.40;;;13.50;1.00;;;;;;5055678;28;20443;-90
2023/11/02 11:08:46;;;;;;;1.05;0.45;;;13.40;1.00;;;;;;5063826;28;20393;-88
2023/11/02 11:11:22;;;;;;;0.90;0.50;;;12.40;1.00;;;;;;5061826;28;20378;-89
2023/11/02 11:13:52;;;;;;;1.00;0.60;;;14.50;1.00;;;;;;5061193;28;20392;-89
2023/11/02 11:17:06;;;;;;;1.30;0.60;;;12.70;1.00;;;;;;5072265;28;20758;-90
2023/11/02 11:20:38;;;;;;;3.38;0.63;;;12.20;1.00;;;;;;5056233;28;20407;-89
2023/11/02 11:23:29;;;;;;;1.33;0.50;;;12.50;1.00;;;;;;5033866;28;20455;-87
2023/11/02 11:29:34;;;;;;;0.93;0.70;;;12.30;1.00;;;;;;5051837;28;20492;-83
2023/11/02 11:32:01;;;;;;;1.73;0.70;;;12.70;1.00;;;;;;5055036;28;20420;-83
2023/11/02 11:34:26;;;;;;;1.13;0.60;;;11.70;1.00;;;;;;5066770;28;20381;-84
2023/11/02 11:37:31;;;;;;;1.00;0.60;;;13.50;1.00;;;;;;5065715;28;20384;-84
2023/11/02 11:39:56;;;;;;;1.30;0.60;;;11.90;1.00;;;;;;5076639;28;20397;-84
2023/11/02 11:43:13;;;;;;;1.23;0.60;;;14.10;1.00;;;;;;5068021;28;20382;-84
2023/11/02 11:46:00;;;;;;;1.63;0.50;;;11.60;1.00;;;;;;5080102;28;20434;-82
2023/11/02 11:48:40;;;;;;;0.57;0.40;;;11.60;1.00;;;;;;5079231;28;20383;-82
2023/11/02 11:51:31;;;;;;;1.60;0.50;;;11.30;1.00;;;;;;5078609;28;20380;-83
2023/11/02 11:54:14;;;;;;;1.30;0.60;;;11.20;1.00;;;;;;5070262;28;20401;-84
2023/11/02 11:56:39;;;;;;;1.20;0.50;;;11.10;1.00;;;;;;5059153;28;20385;-84
2023/11/02 11:59:06;;;;;;;1.42;0.50;;;11.20;1.00;;;;;;5067671;28;20463;-84
2023/11/02 12:01:31;;;;;;;1.30;0.60;;;11.20;1.00;;;;;;5072221;28;20378;-85
2023/11/02 12:03:57;;;;;;;0.75;0.47;;;11.20;1.00;;;;;;5070741;28;20459;-84
2023/11/02 12:06:37;;;;;;;1.00;0.40;;;10.90;1.00;;;;;;5063598;28;20383;-84
2023/11/02 12:09:09;;;;;;;0.70;0.40;;;11.30;1.00;;;;;;5067768;28;20815;-84
2023/11/02 12:11:36;;;;;;;0.90;0.40;;;11.50;1.00;;;;;;5078431;28;20395;-84
2023/11/02 12:14:13;;;;;;;0.90;0.40;;;11.40;1.00;;;;;;5061751;28;20764;-84
2023/11/02 12:16:42;;;;;;;0.60;0.30;;;11.10;1.00;;;;;;5082007;28;20645;-84
2023/11/02 12:19:10;;;;;;;0.80;0.50;;;11.20;1.00;;;;;;5090658;22;20505;-79
2023/11/02 12:21:38;;;;;;;0.40;0.30;;;11.20;1.00;;;;;;5052740;28;20416;-78
2023/11/02 12:24:08;;;;;;;0.55;0.30;;;11.30;1.00;;;;;;5049560;28;20408;-79
2023/11/02 12:26:34;;;;;;;0.60;0.30;;;10.70;1.00;;;;;;5047076;28;20395;-78
2023/11/02 12:29:07;;;;;;;0.80;0.50;;;11.30;1.00;;;;;;5041398;28;20392;-78
2023/11/02 12:31:38;;;;;;;0.70;0.40;;;11.30;1.00;;;;;;5060024;28;20413;-80
2023/11/02 12:34:10;;;;;;;0.67;0.30;;;11.30;1.00;;;;;;5094783;28;20391;-78
2023/11/02 12:36:38;;;;;;;1.15;0.30;;;11.70;1.00;;;;;;5068623;28;20474;-79
2023/11/02 12:39:15;;;;;;;0.80;0.50;;;11.80;1.00;;;;;;5062196;28;20408;-78
2023/11/02 12:41:42;;;;;;;0.60;0.40;;;11.80;1.00;;;;;;5065283;28;20443;-79
2023/11/02 12:44:12;;;;;;;0.90;0.30;;;11.70;1.00;;;;;;5065907;28;20411;-80
2023/11/02 12:46:41;;;;;;;0.80;0.40;;;11.90;1.00;;;;;;5064720;28;20380;-79
2023/11/02 12:49:25;;;;;;;0.52;0.30;;;11.80;1.00;;;;;;5067872;28;20380;-77
2023/11/02 12:51:53;;;;;;;0.80;0.40;;;11.90;1.00;;;;;;5064726;28;20424;-80
2023/11/02 12:54:20;;;;;;;0.60;0.40;;;12.00;1.00;;;;;;5063249;28;20396;-80
2023/11/02 12:56:49;;;;;;;0.45;0.32;;;11.90;1.00;;;;;;5060496;28;20392;-78
2023/11/02 12:59:16;;;;;;;0.82;0.50;;;11.90;1.00;;;;;;5058680;28;21074;-78
2023/11/02 13:01:54;;;;;;;0.40;0.30;;;11.70;1.00;;;;;;5060892;28;20400;-78
2023/11/02 13:04:24;;;;;;;0.80;0.30;;;12.10;1.00;;;;;;5060266;28;20411;-78
2023/11/02 13:06:51;;;;;;;0.50;0.32;;;12.40;1.00;;;;;;5066547;28;20391;-79
2023/11/02 13:09:19;;;;;;;1.08;0.30;;;12.50;1.00;;;;;;5056681;28;20967;-78
2023/11/02 13:11:49;;;;;;;0.90;0.40;;;12.50;1.00;;;;;;5055032;28;20397;-79
2023/11/02 13:14:16;;;;;;;1.70;0.40;;;12.30;1.00;;;;;;5055349;28;20378;-79
2023/11/02 13:16:44;;;;;;;0.82;0.40;;;12.40;1.00;;;;;;5062629;28;20394;-79
2023/11/02 13:19:09;;;;;;;0.50;0.30;;;12.40;1.00;;;;;;5064928;28;20480;-79
2023/11/02 13:21:36;;;;;;;0.60;0.30;;;12.50;1.00;;;;;;5053811;28;20433;-79
2023/11/02 13:24:04;;;;;;;1.30;0.30;;;12.50;1.00;;;;;;5050763;28;20412;-79
2023/11/02 13:26:31;;;;;;;0.70;0.30;;;12.40;1.00;;;;;;5061041;28;20478;-79
2023/11/02 13:28:57;;;;;;;0.60;0.30;;;12.20;1.00;;;;;;5070046;28;20426;-79
2023/11/02 13:31:23;;;;;;;0.50;0.30;;;12.10;1.00;;;;;;5066742;28;20401;-79
2023/11/02 13:33:49;;;;;;;0.57;0.30;;;12.20;1.00;;;;;;5050296;28;20451;-79
2023/11/02 13:36:14;;;;;;;0.53;0.40;;;12.30;1.00;;;;;;5066369;28;20888;-79
2023/11/02 13:38:42;;;;;;;0.50;0.30;;;12.40;1.00;;;;;;5071962;28;20864;-80
2023/11/02 13:41:08;;;;;;;0.50;0.30;;;12.40;1.00;;;;;;5068410;28;20834;-79
2023/11/02 13:43:33;;;;;;;0.50;0.20;;;12.30;1.00;;;;;;5057633;28;20393;-79
2023/11/02 13:45:59;;;;;;;1.00;0.47;;;12.40;1.00;;;;;;5051628;28;20438;-79
2023/11/02 13:48:25;;;;;;;0.50;0.30;;;12.30;1.00;;;;;;5051955;28;20385;-79